sensor_id;sensor_type;location;lat;lon;timestamp;temperature;humidity
60701;DHT22;46541;49.894;10.886;2022-11-09T00:00:38;11.90;99.90
60701;DHT22;46541;49.894;10.886;2022-11-09T00:03:05;11.90;99.90
60701;DHT22;46541;49.894;10.886;2022-11-09T00:05:32;11.90;99.90
60701;DHT22;46541;49.894;10.886;2022-11-09T00:07:59;11.90;99.90
60701;DHT22;46541;49.894;10.886;2022-11-09T00:10:26;11.90;99.90
60701;DHT22;46541;49.894;10.886;2022-11-09T00:12:52;11.90;99.90
60701;DHT22;46541;49.894;10.886;2022-11-09T00:15:19;11.90;99.90
60701;DHT22;46541;49.894;10.886;2022-11-09T00:17:46;11.80;99.90
60701;DHT22;46541;49.894;10.886;2022-11-09T00:20:12;11.80;99.90
60701;DHT22;46541;49.894;10.886;2022-11-09T00:22:39;11.80;99.90
60701;DHT22;46541;49.894;10.886;2022-11-09T00:25:06;11.80;99.90
60701;DHT22;46541;49.894;10.886;2022-11-09T00:27:33;11.70;99.90
60701;DHT22;46541;49.894;10.886;2022-11-09T00:30:00;11.70;99.90
60701;DHT22;46541;49.894;10.886;2022-11-09T00:32:26;11.70;99.90
60701;DHT22;46541;49.894;10.886;2022-11-09T00:34:53;11.60;99.90
60701;DHT22;46541;49.894;10.886;2022-11-09T00:37:20;11.60;99.90
60701;DHT22;46541;49.894;10.886;2022-11-09T00:39:47;11.60;99.90
60701;DHT22;46541;49.894;10.886;2022-11-09T00:42:13;11.50;99.90
60701;DHT22;46541;49.894;10.886;2022-11-09T00:44:40;11.50;99.90
60701;DHT22;46541;49.894;10.886;2022-11-09T00:47:07;11.50;99.90
60701;DHT22;46541;49.894;10.886;2022-11-09T00:49:33;11.40;99.90
60701;DHT22;46541;49.894;10.886;2022-11-09T00:52:00;11.40;99.90
60701;DHT22;46541;49.894;10.886;2022-11-09T00:54:27;11.30;99.90
60701;DHT22;46541;49.894;10.886;2022-11-09T00:56:54;11.30;99.90
60701;DHT22;46541;49.894;10.886;2022-11-09T00:59:20;11.30;99.90
60701;DHT22;46541;49.894;10.886;2022-11-09T01:01:48;11.30;99.90
60701;DHT22;46541;49.894;10.886;2022-11-09T01:04:15;11.30;99.90
60701;DHT22;46541;49.894;10.886;2022-11-09T01:06:41;11.30;99.90
60701;DHT22;46541;49.894;10.886;2022-11-09T01:09:08;11.20;99.90
60701;DHT22;46541;49.894;10.886;2022-11-09T01:11:35;11.20;99.90
60701;DHT22;46541;49.894;10.886;2022-11-09T01:14:02;11.20;99.90
60701;DHT22;46541;49.894;10.886;2022-11-09T01:16:29;11.20;99.90
60701;DHT22;46541;49.894;10.886;2022-11-09T01:18:57;11.20;99.90
60701;DHT22;46541;49.894;10.886;2022-11-09T01:21:25;11.30;99.90
60701;DHT22;46541;49.894;10.886;2022-11-09T01:23:52;11.20;99.90
60701;DHT22;46541;49.894;10.886;2022-11-09T01:26:19;11.20;99.90
60701;DHT22;46541;49.894;10.886;2022-11-09T01:28:45;11.20;99.90
60701;DHT22;46541;49.894;10.886;2022-11-09T01:31:16;11.10;99.90
60701;DHT22;46541;49.894;10.886;2022-11-09T01:33:43;11.10;99.90
60701;DHT22;46541;49.894;10.886;2022-11-09T01:36:15;11.00;99.90
60701;DHT22;46541;49.894;10.886;2022-11-09T01:38:42;11.00;99.90
60701;DHT22;46541;49.894;10.886;2022-11-09T01:41:25;11.00;99.90
60701;DHT22;46541;49.894;10.886;2022-11-09T01:44:21;11.00;99.90
60701;DHT22;46541;49.894;10.886;2022-11-09T01:52:05;11.10;99.90
60701;DHT22;46541;49.894;10.886;2022-11-09T01:54:37;11.10;99.90
60701;DHT22;46541;49.894;10.886;2022-11-09T01:57:11;11.20;99.90
60701;DHT22;46541;49.894;10.886;2022-11-09T01:59:45;11.20;99.90
60701;DHT22;46541;49.894;10.886;2022-11-09T02:02:13;11.20;99.90
60701;DHT22;46541;49.894;10.886;2022-11-09T02:04:43;11.30;99.90
60701;DHT22;46541;49.894;10.886;2022-11-09T02:07:11;11.30;99.90
60701;DHT22;46541;49.894;10.886;2022-11-09T02:09:52;11.40;99.90
60701;DHT22;46541;49.894;10.886;2022-11-09T02:12:22;11.30;99.90
60701;DHT22;46541;49.894;10.886;2022-11-09T02:14:51;11.30;99.90
60701;DHT22;46541;49.894;10.886;2022-11-09T02:17:20;11.40;99.90
60701;DHT22;46541;49.894;10.886;2022-11-09T02:19:47;11.40;99.90
60701;DHT22;46541;49.894;10.886;2022-11-09T02:22:14;11.40;99.90
60701;DHT22;46541;49.894;10.886;2022-11-09T02:24:40;11.50;99.90
60701;DHT22;46541;49.894;10.886;2022-11-09T02:27:07;11.50;99.90
60701;DHT22;46541;49.894;10.886;2022-11-09T02:29:37;11.50;99.90
60701;DHT22;46541;49.894;10.886;2022-11-09T02:32:11;11.50;99.90
60701;DHT22;46541;49.894;10.886;2022-11-09T02:34:39;11.50;99.90
60701;DHT22;46541;49.894;10.886;2022-11-09T02:37:06;11.50;99.90
60701;DHT22;46541;49.894;10.886;2022-11-09T02:39:33;11.50;99.90
60701;DHT22;46541;49.894;10.886;2022-11-09T02:42:04;11.60;99.90
60701;DHT22;46541;49.894;10.886;2022-11-09T02:44:41;11.60;99.90
60701;DHT22;46541;49.894;10.886;2022-11-09T02:47:09;11.60;99.90
60701;DHT22;46541;49.894;10.886;2022-11-09T02:49:35;11.60;99.90
60701;DHT22;46541;49.894;10.886;2022-11-09T02:52:02;11.60;99.90
60701;DHT22;46541;49.894;10.886;2022-11-09T02:54:29;11.60;99.90
60701;DHT22;46541;49.894;10.886;2022-11-09T02:56:56;11.60;99.90
60701;DHT22;46541;49.894;10.886;2022-11-09T02:59:22;11.50;99.90
60701;DHT22;46541;49.894;10.886;2022-11-09T03:01:49;11.60;99.90
60701;DHT22;46541;49.894;10.886;2022-11-09T03:04:19;11.60;99.90
60701;DHT22;46541;49.894;10.886;2022-11-09T03:06:46;11.60;99.90
60701;DHT22;46541;49.894;10.886;2022-11-09T03:09:13;11.60;99.90
60701;DHT22;46541;49.894;10.886;2022-11-09T03:11:40;11.60;99.90
60701;DHT22;46541;49.894;10.886;2022-11-09T03:14:08;11.60;99.90
60701;DHT22;46541;49.894;10.886;2022-11-09T03:16:38;11.60;99.90
60701;DHT22;46541;49.894;10.886;2022-11-09T03:19:05;11.70;99.90
60701;DHT22;46541;49.894;10.886;2022-11-09T03:21:32;11.70;99.90
60701;DHT22;46541;49.894;10.886;2022-11-09T03:23:59;11.70;99.90
60701;DHT22;46541;49.894;10.886;2022-11-09T03:26:25;11.60;99.90
60701;DHT22;46541;49.894;10.886;2022-11-09T03:28:52;11.60;99.90
60701;DHT22;46541;49.894;10.886;2022-11-09T03:31:19;11.60;99.90
60701;DHT22;46541;49.894;10.886;2022-11-09T03:33:46;11.60;99.90
60701;DHT22;46541;49.894;10.886;2022-11-09T03:36:12;11.60;99.90
60701;DHT22;46541;49.894;10.886;2022-11-09T03:38:39;11.50;99.90
60701;DHT22;46541;49.894;10.886;2022-11-09T03:41:06;11.50;99.90
60701;DHT22;46541;49.894;10.886;2022-11-09T03:43:33;11.40;99.90
60701;DHT22;46541;49.894;10.886;2022-11-09T03:45:59;11.40;99.90
60701;DHT22;46541;49.894;10.886;2022-11-09T03:48:26;11.40;99.90
60701;DHT22;46541;49.894;10.886;2022-11-09T03:50:53;11.40;99.90
60701;DHT22;46541;49.894;10.886;2022-11-09T03:53:19;11.40;99.90
60701;DHT22;46541;49.894;10.886;2022-11-09T03:55:46;11.40;99.90
60701;DHT22;46541;49.894;10.886;2022-11-09T03:58:13;11.40;99.90
60701;DHT22;46541;49.894;10.886;2022-11-09T04:00:40;11.40;99.90
60701;DHT22;46541;49.894;10.886;2022-11-09T04:03:07;11.40;99.90
60701;DHT22;46541;49.894;10.886;2022-11-09T04:05:33;11.40;99.90
60701;DHT22;46541;49.894;10.886;2022-11-09T04:08:00;11.40;99.90
60701;DHT22;46541;49.894;10.886;2022-11-09T04:10:27;11.40;99.90
60701;DHT22;46541;49.894;10.886;2022-11-09T04:12:53;11.30;99.90
60701;DHT22;46541;49.894;10.886;2022-11-09T04:15:20;11.30;99.90
60701;DHT22;46541;49.894;10.886;2022-11-09T04:17:57;11.40;99.90
60701;DHT22;46541;49.894;10.886;2022-11-09T04:20:25;11.30;99.90
60701;DHT22;46541;49.894;10.886;2022-11-09T04:23:00;11.30;99.90
60701;DHT22;46541;49.894;10.886;2022-11-09T04:25:30;11.30;99.90
60701;DHT22;46541;49.894;10.886;2022-11-09T04:27:59;11.30;99.90
60701;DHT22;46541;49.894;10.886;2022-11-09T04:30:28;11.30;99.90
60701;DHT22;46541;49.894;10.886;2022-11-09T04:32:56;11.30;99.90
60701;DHT22;46541;49.894;10.886;2022-11-09T04:35:23;11.30;99.90
60701;DHT22;46541;49.894;10.886;2022-11-09T04:37:58;11.30;99.90
60701;DHT22;46541;49.894;10.886;2022-11-09T04:40:28;11.30;99.90
60701;DHT22;46541;49.894;10.886;2022-11-09T04:42:58;11.30;99.90
60701;DHT22;46541;49.894;10.886;2022-11-09T04:45:25;11.30;99.90
60701;DHT22;46541;49.894;10.886;2022-11-09T04:47:59;11.30;99.90
60701;DHT22;46541;49.894;10.886;2022-11-09T04:50:27;11.30;99.90
60701;DHT22;46541;49.894;10.886;2022-11-09T04:52:54;11.40;99.90
60701;DHT22;46541;49.894;10.886;2022-11-09T04:55:21;11.30;99.90
60701;DHT22;46541;49.894;10.886;2022-11-09T04:57:47;11.30;99.90
60701;DHT22;46541;49.894;10.886;2022-11-09T05:00:14;11.40;99.90
60701;DHT22;46541;49.894;10.886;2022-11-09T05:02:41;11.30;99.90
60701;DHT22;46541;49.894;10.886;2022-11-09T05:05:08;11.30;99.90
60701;DHT22;46541;49.894;10.886;2022-11-09T05:07:36;11.30;99.90
60701;DHT22;46541;49.894;10.886;2022-11-09T05:10:02;11.30;99.90
60701;DHT22;46541;49.894;10.886;2022-11-09T05:12:29;11.40;99.90
60701;DHT22;46541;49.894;10.886;2022-11-09T05:14:56;11.30;99.90
60701;DHT22;46541;49.894;10.886;2022-11-09T05:17:23;11.30;99.90
60701;DHT22;46541;49.894;10.886;2022-11-09T05:19:49;11.30;99.90
60701;DHT22;46541;49.894;10.886;2022-11-09T05:22:21;11.30;99.90
60701;DHT22;46541;49.894;10.886;2022-11-09T05:25:07;11.30;99.90
60701;DHT22;46541;49.894;10.886;2022-11-09T05:27:33;11.30;99.90
60701;DHT22;46541;49.894;10.886;2022-11-09T05:30:00;11.20;99.90
60701;DHT22;46541;49.894;10.886;2022-11-09T05:32:27;11.30;99.90
60701;DHT22;46541;49.894;10.886;2022-11-09T05:34:53;11.30;99.90
60701;DHT22;46541;49.894;10.886;2022-11-09T05:37:20;11.20;99.90
60701;DHT22;46541;49.894;10.886;2022-11-09T05:39:48;11.20;99.90
60701;DHT22;46541;49.894;10.886;2022-11-09T05:42:14;11.20;99.90
60701;DHT22;46541;49.894;10.886;2022-11-09T05:44:41;11.20;99.90
60701;DHT22;46541;49.894;10.886;2022-11-09T05:47:08;11.10;99.90
60701;DHT22;46541;49.894;10.886;2022-11-09T05:49:35;11.10;99.90
60701;DHT22;46541;49.894;10.886;2022-11-09T05:52:01;11.10;99.90
60701;DHT22;46541;49.894;10.886;2022-11-09T05:54:28;11.10;99.90
60701;DHT22;46541;49.894;10.886;2022-11-09T05:56:55;11.10;99.90
60701;DHT22;46541;49.894;10.886;2022-11-09T05:59:21;11.10;99.90
60701;DHT22;46541;49.894;10.886;2022-11-09T06:01:48;11.10;99.90
60701;DHT22;46541;49.894;10.886;2022-11-09T06:04:15;11.10;99.90
60701;DHT22;46541;49.894;10.886;2022-11-09T06:06:42;11.00;99.90
60701;DHT22;46541;49.894;10.886;2022-11-09T06:09:09;11.00;99.90
60701;DHT22;46541;49.894;10.886;2022-11-09T06:11:35;11.00;99.90
60701;DHT22;46541;49.894;10.886;2022-11-09T06:14:02;11.00;99.90
60701;DHT22;46541;49.894;10.886;2022-11-09T06:16:29;11.00;99.90
60701;DHT22;46541;49.894;10.886;2022-11-09T06:18:56;10.90;99.90
60701;DHT22;46541;49.894;10.886;2022-11-09T06:21:22;10.90;99.90
60701;DHT22;46541;49.894;10.886;2022-11-09T06:23:49;10.90;99.90
60701;DHT22;46541;49.894;10.886;2022-11-09T06:26:16;10.90;99.90
60701;DHT22;46541;49.894;10.886;2022-11-09T06:28:42;10.90;99.90
60701;DHT22;46541;49.894;10.886;2022-11-09T06:31:12;10.80;99.90
60701;DHT22;46541;49.894;10.886;2022-11-09T06:33:39;10.90;99.90
60701;DHT22;46541;49.894;10.886;2022-11-09T06:36:06;10.80;99.90
60701;DHT22;46541;49.894;10.886;2022-11-09T06:38:33;10.90;99.90
60701;DHT22;46541;49.894;10.886;2022-11-09T06:41:00;10.80;99.90
60701;DHT22;46541;49.894;10.886;2022-11-09T06:43:27;10.80;99.90
60701;DHT22;46541;49.894;10.886;2022-11-09T06:45:54;10.80;99.90
60701;DHT22;46541;49.894;10.886;2022-11-09T06:48:21;10.80;99.90
60701;DHT22;46541;49.894;10.886;2022-11-09T06:50:48;10.80;99.90
60701;DHT22;46541;49.894;10.886;2022-11-09T06:53:16;10.70;99.90
60701;DHT22;46541;49.894;10.886;2022-11-09T06:55:44;10.70;99.90
60701;DHT22;46541;49.894;10.886;2022-11-09T06:58:17;10.80;99.90
60701;DHT22;46541;49.894;10.886;2022-11-09T07:00:45;10.80;99.90
60701;DHT22;46541;49.894;10.886;2022-11-09T07:03:16;10.80;99.90
60701;DHT22;46541;49.894;10.886;2022-11-09T07:05:44;10.80;99.90
60701;DHT22;46541;49.894;10.886;2022-11-09T07:08:12;10.80;99.90
60701;DHT22;46541;49.894;10.886;2022-11-09T07:10:39;10.80;99.90
60701;DHT22;46541;49.894;10.886;2022-11-09T07:13:07;10.80;99.90
60701;DHT22;46541;49.894;10.886;2022-11-09T07:15:35;10.80;99.90
60701;DHT22;46541;49.894;10.886;2022-11-09T07:18:04;10.90;99.90
60701;DHT22;46541;49.894;10.886;2022-11-09T07:20:31;10.90;99.90
60701;DHT22;46541;49.894;10.886;2022-11-09T07:22:58;10.90;99.90
60701;DHT22;46541;49.894;10.886;2022-11-09T07:25:25;10.90;99.90
60701;DHT22;46541;49.894;10.886;2022-11-09T07:27:53;10.90;99.90
60701;DHT22;46541;49.894;10.886;2022-11-09T07:30:20;10.90;99.90
60701;DHT22;46541;49.894;10.886;2022-11-09T07:32:47;10.90;99.90
60701;DHT22;46541;49.894;10.886;2022-11-09T07:35:33;10.90;99.90
60701;DHT22;46541;49.894;10.886;2022-11-09T07:38:00;10.90;99.90
60701;DHT22;46541;49.894;10.886;2022-11-09T07:40:28;10.90;99.90
60701;DHT22;46541;49.894;10.886;2022-11-09T07:42:59;10.90;99.90
60701;DHT22;46541;49.894;10.886;2022-11-09T07:45:28;10.90;99.90
60701;DHT22;46541;49.894;10.886;2022-11-09T07:48:00;10.90;99.90
60701;DHT22;46541;49.894;10.886;2022-11-09T07:50:29;11.00;99.90
60701;DHT22;46541;49.894;10.886;2022-11-09T07:52:57;11.10;99.90
60701;DHT22;46541;49.894;10.886;2022-11-09T07:55:25;11.10;99.90
60701;DHT22;46541;49.894;10.886;2022-11-09T07:58:00;11.10;99.90
60701;DHT22;46541;49.894;10.886;2022-11-09T08:00:29;11.20;99.90
60701;DHT22;46541;49.894;10.886;2022-11-09T08:02:56;11.20;99.90
60701;DHT22;46541;49.894;10.886;2022-11-09T08:05:23;11.20;99.90
60701;DHT22;46541;49.894;10.886;2022-11-09T08:07:57;11.30;99.90
60701;DHT22;46541;49.894;10.886;2022-11-09T08:10:25;11.30;99.90
60701;DHT22;46541;49.894;10.886;2022-11-09T08:13:00;11.30;99.90
60701;DHT22;46541;49.894;10.886;2022-11-09T08:15:27;11.30;99.90
60701;DHT22;46541;49.894;10.886;2022-11-09T08:17:59;11.40;99.90
60701;DHT22;46541;49.894;10.886;2022-11-09T08:20:26;11.40;99.90
60701;DHT22;46541;49.894;10.886;2022-11-09T08:22:54;11.50;99.90
60701;DHT22;46541;49.894;10.886;2022-11-09T08:25:27;11.50;99.90
60701;DHT22;46541;49.894;10.886;2022-11-09T08:27:56;11.50;99.90
60701;DHT22;46541;49.894;10.886;2022-11-09T08:30:23;11.50;99.90
60701;DHT22;46541;49.894;10.886;2022-11-09T08:32:50;11.60;99.90
60701;DHT22;46541;49.894;10.886;2022-11-09T08:35:20;11.70;99.90
60701;DHT22;46541;49.894;10.886;2022-11-09T08:37:48;11.70;99.90
60701;DHT22;46541;49.894;10.886;2022-11-09T08:40:18;11.80;99.90
60701;DHT22;46541;49.894;10.886;2022-11-09T08:42:46;11.80;99.90
60701;DHT22;46541;49.894;10.886;2022-11-09T08:45:13;11.80;99.90
60701;DHT22;46541;49.894;10.886;2022-11-09T08:47:40;11.80;99.90
60701;DHT22;46541;49.894;10.886;2022-11-09T08:50:08;11.80;99.90
60701;DHT22;46541;49.894;10.886;2022-11-09T08:52:35;11.80;99.90
60701;DHT22;46541;49.894;10.886;2022-11-09T08:55:03;11.80;99.90
60701;DHT22;46541;49.894;10.886;2022-11-09T08:57:30;11.80;99.90
60701;DHT22;46541;49.894;10.886;2022-11-09T08:59:57;11.80;99.90
60701;DHT22;46541;49.894;10.886;2022-11-09T09:02:24;11.80;99.90
60701;DHT22;46541;49.894;10.886;2022-11-09T09:04:50;11.80;99.90
60701;DHT22;46541;49.894;10.886;2022-11-09T09:07:17;11.80;99.90
60701;DHT22;46541;49.894;10.886;2022-11-09T09:09:44;11.80;99.90
60701;DHT22;46541;49.894;10.886;2022-11-09T09:12:11;11.80;99.90
60701;DHT22;46541;49.894;10.886;2022-11-09T09:14:37;11.80;99.90
60701;DHT22;46541;49.894;10.886;2022-11-09T09:17:04;11.70;99.90
60701;DHT22;46541;49.894;10.886;2022-11-09T09:19:31;11.70;99.90
60701;DHT22;46541;49.894;10.886;2022-11-09T09:21:58;11.70;99.90
60701;DHT22;46541;49.894;10.886;2022-11-09T09:24:25;11.80;99.90
60701;DHT22;46541;49.894;10.886;2022-11-09T09:26:52;11.90;99.90
60701;DHT22;46541;49.894;10.886;2022-11-09T09:29:19;11.90;99.90
60701;DHT22;46541;49.894;10.886;2022-11-09T09:31:46;12.00;99.90
60701;DHT22;46541;49.894;10.886;2022-11-09T09:34:13;12.10;99.90
60701;DHT22;46541;49.894;10.886;2022-11-09T09:36:40;12.10;99.90
60701;DHT22;46541;49.894;10.886;2022-11-09T09:39:13;12.20;99.90
60701;DHT22;46541;49.894;10.886;2022-11-09T09:41:47;12.30;99.90
60701;DHT22;46541;49.894;10.886;2022-11-09T09:50:42;12.40;99.90
60701;DHT22;46541;49.894;10.886;2022-11-09T09:53:28;12.50;99.90
60701;DHT22;46541;49.894;10.886;2022-11-09T09:56:02;12.50;99.90
60701;DHT22;46541;49.894;10.886;2022-11-09T09:58:32;12.60;99.90
60701;DHT22;46541;49.894;10.886;2022-11-09T10:01:06;12.80;99.90
60701;DHT22;46541;49.894;10.886;2022-11-09T10:03:36;12.90;99.90
60701;DHT22;46541;49.894;10.886;2022-11-09T10:08:58;13.00;99.90
60701;DHT22;46541;49.894;10.886;2022-11-09T10:11:52;13.00;99.90
60701;DHT22;46541;49.894;10.886;2022-11-09T10:14:48;13.00;99.90
60701;DHT22;46541;49.894;10.886;2022-11-09T10:17:34;12.90;99.90
60701;DHT22;46541;49.894;10.886;2022-11-09T10:22:51;13.20;99.90
60701;DHT22;46541;49.894;10.886;2022-11-09T10:25:24;13.20;99.90
60701;DHT22;46541;49.894;10.886;2022-11-09T10:28:14;13.30;99.90
60701;DHT22;46541;49.894;10.886;2022-11-09T10:30:42;13.30;99.90
60701;DHT22;46541;49.894;10.886;2022-11-09T10:33:17;13.40;99.90
60701;DHT22;46541;49.894;10.886;2022-11-09T10:36:04;13.30;99.90
60701;DHT22;46541;49.894;10.886;2022-11-09T10:38:41;13.30;99.90
60701;DHT22;46541;49.894;10.886;2022-11-09T10:41:34;13.30;99.90
60701;DHT22;46541;49.894;10.886;2022-11-09T10:44:03;13.40;99.90
60701;DHT22;46541;49.894;10.886;2022-11-09T10:47:42;13.40;99.90
60701;DHT22;46541;49.894;10.886;2022-11-09T10:49:40;13.40;99.90
60701;DHT22;46541;49.894;10.886;2022-11-09T10:52:33;13.40;99.90
60701;DHT22;46541;49.894;10.886;2022-11-09T10:55:22;13.40;99.90
60701;DHT22;46541;49.894;10.886;2022-11-09T10:58:01;13.40;99.90
60701;DHT22;46541;49.894;10.886;2022-11-09T11:00:29;13.30;99.90
60701;DHT22;46541;49.894;10.886;2022-11-09T11:02:56;13.20;99.90
60701;DHT22;46541;49.894;10.886;2022-11-09T11:05:26;13.20;99.90
60701;DHT22;46541;49.894;10.886;2022-11-09T11:07:53;13.20;99.90
60701;DHT22;46541;49.894;10.886;2022-11-09T11:10:20;13.30;99.90
60701;DHT22;46541;49.894;10.886;2022-11-09T11:15:40;13.40;99.90
60701;DHT22;46541;49.894;10.886;2022-11-09T11:18:26;13.50;99.90
60701;DHT22;46541;49.894;10.886;2022-11-09T11:21:14;13.50;99.90
60701;DHT22;46541;49.894;10.886;2022-11-09T11:27:12;13.40;99.90
60701;DHT22;46541;49.894;10.886;2022-11-09T11:29:51;13.40;99.90
60701;DHT22;46541;49.894;10.886;2022-11-09T11:32:20;13.50;99.90
60701;DHT22;46541;49.894;10.886;2022-11-09T11:34:48;13.70;99.90
60701;DHT22;46541;49.894;10.886;2022-11-09T11:40:32;14.00;99.90
60701;DHT22;46541;49.894;10.886;2022-11-09T11:43:21;14.00;99.90
60701;DHT22;46541;49.894;10.886;2022-11-09T11:46:03;13.80;99.90
60701;DHT22;46541;49.894;10.886;2022-11-09T11:51:46;13.80;99.90
60701;DHT22;46541;49.894;10.886;2022-11-09T11:57:22;13.70;99.90
60701;DHT22;46541;49.894;10.886;2022-11-09T12:02:34;13.90;99.90
60701;DHT22;46541;49.894;10.886;2022-11-09T12:05:21;13.90;99.90
60701;DHT22;46541;49.894;10.886;2022-11-09T12:07:59;14.00;99.90
60701;DHT22;46541;49.894;10.886;2022-11-09T12:10:53;14.20;99.90
60701;DHT22;46541;49.894;10.886;2022-11-09T12:16:38;14.40;99.90
60701;DHT22;46541;49.894;10.886;2022-11-09T12:22:12;14.60;99.90
60701;DHT22;46541;49.894;10.886;2022-11-09T12:30:21;14.50;99.90
60701;DHT22;46541;49.894;10.886;2022-11-09T12:32:57;14.50;99.90
60701;DHT22;46541;49.894;10.886;2022-11-09T12:35:32;14.60;99.90
60701;DHT22;46541;49.894;10.886;2022-11-09T12:38:09;14.70;99.90
60701;DHT22;46541;49.894;10.886;2022-11-09T12:40:52;14.80;99.90
60701;DHT22;46541;49.894;10.886;2022-11-09T12:43:40;14.80;99.90
60701;DHT22;46541;49.894;10.886;2022-11-09T12:46:10;14.90;99.90
60701;DHT22;46541;49.894;10.886;2022-11-09T12:48:39;15.00;99.90
60701;DHT22;46541;49.894;10.886;2022-11-09T12:51:07;15.00;99.90
60701;DHT22;46541;49.894;10.886;2022-11-09T12:53:36;15.00;99.90
60701;DHT22;46541;49.894;10.886;2022-11-09T12:56:04;15.10;99.90
60701;DHT22;46541;49.894;10.886;2022-11-09T12:58:34;15.20;99.90
60701;DHT22;46541;49.894;10.886;2022-11-09T13:01:04;15.20;99.90
60701;DHT22;46541;49.894;10.886;2022-11-09T13:03:50;15.20;99.90
60701;DHT22;46541;49.894;10.886;2022-11-09T13:06:18;15.20;99.90
60701;DHT22;46541;49.894;10.886;2022-11-09T13:09:17;15.20;99.90
60701;DHT22;46541;49.894;10.886;2022-11-09T13:11:47;15.20;99.90
60701;DHT22;46541;49.894;10.886;2022-11-09T13:19:55;15.10;99.90
60701;DHT22;46541;49.894;10.886;2022-11-09T13:24:55;15.00;99.90
60701;DHT22;46541;49.894;10.886;2022-11-09T13:29:54;15.00;99.90
60701;DHT22;46541;49.894;10.886;2022-11-09T13:32:25;15.00;99.90
60701;DHT22;46541;49.894;10.886;2022-11-09T13:43:02;14.90;99.90
60701;DHT22;46541;49.894;10.886;2022-11-09T13:48:43;14.90;99.90
60701;DHT22;46541;49.894;10.886;2022-11-09T13:51:21;14.90;99.90
60701;DHT22;46541;49.894;10.886;2022-11-09T13:56:37;14.90;99.90
60701;DHT22;46541;49.894;10.886;2022-11-09T14:01:53;14.90;99.90
60701;DHT22;46541;49.894;10.886;2022-11-09T14:07:01;14.80;99.90
60701;DHT22;46541;49.894;10.886;2022-11-09T14:12:36;14.80;99.90
60701;DHT22;46541;49.894;10.886;2022-11-09T14:21:18;14.70;99.90
60701;DHT22;46541;49.894;10.886;2022-11-09T14:23:47;14.60;99.90
60701;DHT22;46541;49.894;10.886;2022-11-09T14:26:23;14.60;99.90
60701;DHT22;46541;49.894;10.886;2022-11-09T14:28:50;14.60;99.90
60701;DHT22;46541;49.894;10.886;2022-11-09T14:31:24;14.50;99.90
60701;DHT22;46541;49.894;10.886;2022-11-09T14:34:15;14.50;99.90
60701;DHT22;46541;49.894;10.886;2022-11-09T14:36:42;14.50;99.90
60701;DHT22;46541;49.894;10.886;2022-11-09T14:39:35;14.50;99.90
60701;DHT22;46541;49.894;10.886;2022-11-09T14:42:05;14.50;99.90
60701;DHT22;46541;49.894;10.886;2022-11-09T14:44:43;14.40;99.90
60701;DHT22;46541;49.894;10.886;2022-11-09T14:49:42;14.30;99.90
60701;DHT22;46541;49.894;10.886;2022-11-09T14:52:17;14.30;99.90
60701;DHT22;46541;49.894;10.886;2022-11-09T14:54:46;14.30;99.90
60701;DHT22;46541;49.894;10.886;2022-11-09T14:57:15;14.30;99.90
60701;DHT22;46541;49.894;10.886;2022-11-09T14:59:43;14.30;99.90
60701;DHT22;46541;49.894;10.886;2022-11-09T15:02:16;14.20;99.90
60701;DHT22;46541;49.894;10.886;2022-11-09T15:05:00;14.20;99.90
60701;DHT22;46541;49.894;10.886;2022-11-09T15:07:32;14.20;99.90
60701;DHT22;46541;49.894;10.886;2022-11-09T15:10:05;14.10;99.90
60701;DHT22;46541;49.894;10.886;2022-11-09T15:12:33;14.10;99.90
60701;DHT22;46541;49.894;10.886;2022-11-09T15:15:05;14.10;99.90
60701;DHT22;46541;49.894;10.886;2022-11-09T15:17:34;14.10;99.90
60701;DHT22;46541;49.894;10.886;2022-11-09T15:25:22;14.00;99.90
60701;DHT22;46541;49.894;10.886;2022-11-09T15:32:54;14.00;99.90
60701;DHT22;46541;49.894;10.886;2022-11-09T15:35:21;14.00;99.90
60701;DHT22;46541;49.894;10.886;2022-11-09T15:37:50;14.00;99.90
60701;DHT22;46541;49.894;10.886;2022-11-09T15:40:22;14.00;99.90
60701;DHT22;46541;49.894;10.886;2022-11-09T15:42:49;13.90;99.90
60701;DHT22;46541;49.894;10.886;2022-11-09T15:45:19;13.90;99.90
60701;DHT22;46541;49.894;10.886;2022-11-09T15:47:52;13.90;99.90
60701;DHT22;46541;49.894;10.886;2022-11-09T15:50:22;13.90;99.90
60701;DHT22;46541;49.894;10.886;2022-11-09T15:52:49;13.80;99.90
60701;DHT22;46541;49.894;10.886;2022-11-09T15:55:21;13.80;99.90
60701;DHT22;46541;49.894;10.886;2022-11-09T15:57:49;13.80;99.90
60701;DHT22;46541;49.894;10.886;2022-11-09T16:00:19;13.80;99.90
60701;DHT22;46541;49.894;10.886;2022-11-09T16:02:47;13.70;99.90
60701;DHT22;46541;49.894;10.886;2022-11-09T16:05:14;13.70;99.90
60701;DHT22;46541;49.894;10.886;2022-11-09T16:07:48;13.70;99.90
60701;DHT22;46541;49.894;10.886;2022-11-09T16:10:16;13.70;99.90
60701;DHT22;46541;49.894;10.886;2022-11-09T16:12:46;13.70;99.90
60701;DHT22;46541;49.894;10.886;2022-11-09T16:15:13;13.70;99.90
60701;DHT22;46541;49.894;10.886;2022-11-09T16:17:40;13.60;99.90
60701;DHT22;46541;49.894;10.886;2022-11-09T16:20:07;13.60;99.90
60701;DHT22;46541;49.894;10.886;2022-11-09T16:22:33;13.60;99.90
60701;DHT22;46541;49.894;10.886;2022-11-09T16:25:00;13.60;99.90
60701;DHT22;46541;49.894;10.886;2022-11-09T16:27:27;13.60;99.90
60701;DHT22;46541;49.894;10.886;2022-11-09T16:30:14;13.50;99.90
60701;DHT22;46541;49.894;10.886;2022-11-09T16:32:41;13.50;99.90
60701;DHT22;46541;49.894;10.886;2022-11-09T16:35:08;13.50;99.90
60701;DHT22;46541;49.894;10.886;2022-11-09T16:37:56;13.50;99.90
60701;DHT22;46541;49.894;10.886;2022-11-09T16:40:25;13.40;99.90
60701;DHT22;46541;49.894;10.886;2022-11-09T16:42:53;13.50;99.90
60701;DHT22;46541;49.894;10.886;2022-11-09T16:45:20;13.40;99.90
60701;DHT22;46541;49.894;10.886;2022-11-09T16:47:50;13.40;99.90
60701;DHT22;46541;49.894;10.886;2022-11-09T16:50:18;13.40;99.90
60701;DHT22;46541;49.894;10.886;2022-11-09T16:52:48;13.40;99.90
60701;DHT22;46541;49.894;10.886;2022-11-09T16:55:14;13.30;99.90
60701;DHT22;46541;49.894;10.886;2022-11-09T16:57:41;13.30;99.90
60701;DHT22;46541;49.894;10.886;2022-11-09T17:00:08;13.30;99.90
60701;DHT22;46541;49.894;10.886;2022-11-09T17:02:35;13.30;99.90
60701;DHT22;46541;49.894;10.886;2022-11-09T17:05:02;13.30;99.90
60701;DHT22;46541;49.894;10.886;2022-11-09T17:07:29;13.30;99.90
60701;DHT22;46541;49.894;10.886;2022-11-09T17:09:57;13.20;99.90
60701;DHT22;46541;49.894;10.886;2022-11-09T17:12:23;13.30;99.90